Time;durP1;ratioP1;P1;durP2;ratioP2;P2;SDS_P1;SDS_P2;PMS_P1;PMS_P2;Temp;Humidity;BMP_temperature;BMP_pressure;BME280_temperature;BME280_humidity;BME280_pressure;Samples;Min_cycle;Max_cycle;Signal;HPM_P1;HPM_P2
2022/06/05 00:00:22;;;;;;;3.57;1.67;;;;;;;;;;2106924;28;20048;-43
2022/06/05 00:01:27;;;;;;;2.67;1.95;;;;;;;;;;2106926;28;20051;-43
2022/06/05 00:02:33;;;;;;;2.47;1.63;;;;;;;;;;2106902;28;20150;-42
2022/06/05 00:03:38;;;;;;;3.28;1.80;;;;;;;;;;2107076;28;20048;-43
2022/06/05 00:04:43;;;;;;;2.72;2.00;;;;;;;;;;2107042;28;20131;-42
2022/06/05 00:05:48;;;;;;;3.17;2.00;;;;;;;;;;2107011;28;20119;-44
2022/06/05 00:06:52;;;;;;;2.78;2.00;;;;;;;;;;2107032;28;20256;-42
2022/06/05 00:08:01;;;;;;;2.65;1.80;;;;;;;;;;2107077;28;20092;-42
2022/06/05 00:09:06;;;;;;;2.50;1.77;;;;;;;;;;2106890;28;20202;-41
2022/06/05 00:10:08;;;;;;;2.22;1.90;;;;;;;;;;2107054;28;20443;-42
2022/06/05 00:11:11;;;;;;;2.15;1.60;;;;;;;;;;2104105;28;20484;-42
2022/06/05 00:12:14;;;;;;;2.55;1.83;;;;;;;;;;2098463;28;20047;-41
2022/06/05 00:13:19;;;;;;;2.90;1.80;;;;;;;;;;2098583;28;20059;-41
2022/06/05 00:14:21;;;;;;;3.20;2.22;;;;;;;;;;2098506;28;20174;-42
2022/06/05 00:15:22;;;;;;;2.95;1.70;;;;;;;;;;2098713;28;20481;-42
2022/06/05 00:16:25;;;;;;;3.42;1.75;;;;;;;;;;2098340;28;20444;-44
2022/06/05 00:17:26;;;;;;;3.85;1.98;;;;;;;;;;2098508;28;20049;-43
2022/06/05 00:18:31;;;;;;;3.03;1.65;;;;;;;;;;2098566;28;20052;-42
2022/06/05 00:19:33;;;;;;;2.25;1.60;;;;;;;;;;2098484;28;20127;-42
2022/06/05 00:20:34;;;;;;;1.98;1.50;;;;;;;;;;2098782;28;20171;-43
2022/06/05 00:21:35;;;;;;;2.87;1.70;;;;;;;;;;2098407;28;20052;-42
2022/06/05 00:22:37;;;;;;;2.90;1.77;;;;;;;;;;2098313;28;20464;-42
2022/06/05 00:23:39;;;;;;;3.63;1.50;;;;;;;;;;2098569;28;20127;-42
2022/06/05 00:24:40;;;;;;;2.90;1.70;;;;;;;;;;2098534;28;20052;-42
2022/06/05 00:25:47;;;;;;;3.30;1.50;;;;;;;;;;2098298;28;20037;-41
2022/06/05 00:26:52;;;;;;;2.47;1.73;;;;;;;;;;2098546;28;20098;-42
2022/06/05 00:27:58;;;;;;;3.08;1.63;;;;;;;;;;2098371;28;20052;-42
2022/06/05 00:29:02;;;;;;;3.03;1.80;;;;;;;;;;2098376;28;20611;-42
2022/06/05 00:30:07;;;;;;;2.13;1.50;;;;;;;;;;2101645;28;20044;-43
2022/06/05 00:31:12;;;;;;;2.53;1.48;;;;;;;;;;2106646;28;20044;-43
2022/06/05 00:32:18;;;;;;;1.85;1.40;;;;;;;;;;2106729;28;20058;-43
2022/06/05 00:33:23;;;;;;;2.00;1.60;;;;;;;;;;2107087;28;20082;-45
2022/06/05 00:34:25;;;;;;;3.30;1.95;;;;;;;;;;2106693;28;20142;-45
2022/06/05 00:35:31;;;;;;;2.13;1.45;;;;;;;;;;2106715;28;20135;-45
2022/06/05 00:36:39;;;;;;;2.53;1.63;;;;;;;;;;2106685;28;20119;-45
2022/06/05 00:37:46;;;;;;;1.63;1.40;;;;;;;;;;2106835;28;20044;-45
2022/06/05 00:38:51;;;;;;;2.42;1.42;;;;;;;;;;2106874;28;20127;-42
2022/06/05 00:39:59;;;;;;;2.67;1.40;;;;;;;;;;2107011;28;20050;-45
2022/06/05 00:41:10;;;;;;;2.33;1.67;;;;;;;;;;2106691;28;20059;-45
2022/06/05 00:42:13;;;;;;;2.45;1.60;;;;;;;;;;2106740;28;20563;-45
2022/06/05 00:43:16;;;;;;;2.47;1.70;;;;;;;;;;2106742;28;20097;-45
2022/06/05 00:44:18;;;;;;;2.83;1.63;;;;;;;;;;2106629;28;20424;-45
2022/06/05 00:45:20;;;;;;;2.97;1.83;;;;;;;;;;2106655;28;20060;-46
2022/06/05 00:46:21;;;;;;;2.38;1.80;;;;;;;;;;2106139;28;20052;-46
2022/06/05 00:47:24;;;;;;;4.03;1.85;;;;;;;;;;2106538;28;20048;-46
2022/06/05 00:48:25;;;;;;;1.85;1.50;;;;;;;;;;2106703;28;20165;-46
2022/06/05 00:49:31;;;;;;;2.20;1.63;;;;;;;;;;2106769;28;20121;-46
2022/06/05 00:50:32;;;;;;;2.78;1.50;;;;;;;;;;2106586;28;20183;-46
2022/06/05 00:51:33;;;;;;;4.43;1.92;;;;;;;;;;2106640;28;20131;-46
2022/06/05 00:52:36;;;;;;;2.25;1.70;;;;;;;;;;2106621;28;20131;-45
2022/06/05 00:53:37;;;;;;;3.22;1.92;;;;;;;;;;2106618;28;20078;-46
2022/06/05 00:54:38;;;;;;;;;;;;;;;;;;2107035;28;20047;-43
2022/06/05 00:55:41;;;;;;;3.47;1.90;;;;;;;;;;2106834;28;19920;-44
2022/06/05 00:56:42;;;;;;;2.38;1.60;;;;;;;;;;2106377;28;20044;-45
2022/06/05 00:57:44;;;;;;;4.85;2.33;;;;;;;;;;2106788;28;20095;-44
2022/06/05 00:58:45;;;;;;;2.25;1.55;;;;;;;;;;2106624;28;20131;-45
2022/06/05 00:59:47;;;;;;;2.40;1.60;;;;;;;;;;2106633;28;20039;-45
2022/06/05 01:00:51;;;;;;;2.40;1.70;;;;;;;;;;2106478;28;20123;-44
2022/06/05 01:01:53;;;;;;;3.17;2.10;;;;;;;;;;2106617;28;20545;-45
2022/06/05 01:02:54;;;;;;;;;;;;;;;;;;2106891;28;20401;-45
2022/06/05 01:04:01;;;;;;;2.35;1.60;;;;;;;;;;2106460;28;19928;-45
2022/06/05 01:05:02;;;;;;;2.58;1.67;;;;;;;;;;2106555;28;20413;-45
2022/06/05 01:06:04;;;;;;;2.53;1.88;;;;;;;;;;2106398;28;20128;-45
2022/06/05 01:07:05;;;;;;;3.30;1.73;;;;;;;;;;2106643;28;20127;-46
2022/06/05 01:08:07;;;;;;;2.43;1.93;;;;;;;;;;2106490;28;20056;-45
2022/06/05 01:09:07;;;;;;;2.15;1.75;;;;;;;;;;2106501;28;20324;-45
2022/06/05 01:10:10;;;;;;;2.47;1.90;;;;;;;;;;2106606;28;20055;-46
2022/06/05 01:11:14;;;;;;;2.67;1.75;;;;;;;;;;2103521;28;20290;-45
2022/06/05 01:12:26;;;;;;;2.60;1.80;;;;;;;;;;2098132;28;20258;-46
2022/06/05 01:13:36;;;;;;;2.58;1.80;;;;;;;;;;2098315;28;20052;-45
2022/06/05 01:14:44;;;;;;;2.50;1.65;;;;;;;;;;2098153;28;20040;-45
2022/06/05 01:15:51;;;;;;;2.83;1.92;;;;;;;;;;2098000;28;20127;-45
2022/06/05 01:16:58;;;;;;;5.25;1.98;;;;;;;;;;2098104;28;20115;-45
2022/06/05 01:18:01;;;;;;;4.80;2.45;;;;;;;;;;2098152;28;20085;-44
2022/06/05 01:19:09;;;;;;;3.17;2.22;;;;;;;;;;2098175;28;20101;-45
2022/06/05 01:20:14;;;;;;;2.85;1.88;;;;;;;;;;2098406;28;20079;-45
2022/06/05 01:21:29;;;;;;;3.92;2.30;;;;;;;;;;2097880;28;20564;-45
2022/06/05 01:22:33;;;;;;;2.90;1.95;;;;;;;;;;2098236;28;20153;-45
2022/06/05 01:23:43;;;;;;;2.83;2.00;;;;;;;;;;2098131;28;20045;-47
2022/06/05 01:24:55;;;;;;;3.78;2.20;;;;;;;;;;2098148;28;20048;-43
2022/06/05 01:26:04;;;;;;;2.97;2.05;;;;;;;;;;2098270;28;20120;-43
2022/06/05 01:27:06;;;;;;;3.80;2.33;;;;;;;;;;2106477;28;20123;-44
2022/06/05 01:28:09;;;;;;;3.03;1.90;;;;;;;;;;2106469;28;20051;-44
2022/06/05 01:29:14;;;;;;;3.85;2.10;;;;;;;;;;2106383;28;20118;-43
2022/06/05 01:30:16;;;;;;;2.72;1.80;;;;;;;;;;2106570;28;20145;-46
2022/06/05 01:31:20;;;;;;;3.22;2.08;;;;;;;;;;2106428;28;20127;-46
2022/06/05 01:32:25;;;;;;;2.50;1.65;;;;;;;;;;2106515;28;20074;-43
2022/06/05 01:33:28;;;;;;;4.15;2.33;;;;;;;;;;2106250;28;20404;-43
2022/06/05 01:34:31;;;;;;;3.78;2.10;;;;;;;;;;2106307;28;20519;-43
2022/06/05 01:35:37;;;;;;;2.97;1.83;;;;;;;;;;2106447;28;20132;-43
2022/06/05 01:36:43;;;;;;;3.85;2.10;;;;;;;;;;2106379;28;20097;-43
2022/06/05 01:37:46;;;;;;;3.10;2.20;;;;;;;;;;2106228;28;20048;-43
2022/06/05 01:38:50;;;;;;;3.97;1.95;;;;;;;;;;2106305;28;20048;-44
2022/06/05 01:39:54;;;;;;;3.67;2.10;;;;;;;;;;2106256;28;20143;-43
2022/06/05 01:40:57;;;;;;;4.88;2.00;;;;;;;;;;2106577;28;20131;-44
2022/06/05 01:42:01;;;;;;;3.05;1.83;;;;;;;;;;2106337;28;20241;-46
2022/06/05 01:43:04;;;;;;;3.63;2.00;;;;;;;;;;2106279;28;20143;-46
2022/06/05 01:44:07;;;;;;;3.65;2.00;;;;;;;;;;2106338;28;20074;-45
2022/06/05 01:45:11;;;;;;;2.50;1.83;;;;;;;;;;2106200;28;20052;-46
2022/06/05 01:46:14;;;;;;;3.38;1.75;;;;;;;;;;2106363;28;20126;-45
2022/06/05 01:47:18;;;;;;;3.45;2.10;;;;;;;;;;2106273;28;20142;-46
2022/06/05 01:48:23;;;;;;;3.83;1.92;;;;;;;;;;2106180;28;20048;-46
2022/06/05 01:49:27;;;;;;;2.67;1.75;;;;;;;;;;2106392;28;20135;-45
2022/06/05 01:50:31;;;;;;;3.70;1.85;;;;;;;;;;2106372;28;20040;-46
2022/06/05 01:51:34;;;;;;;4.53;2.03;;;;;;;;;;2106223;28;20047;-46
2022/06/05 01:52:38;;;;;;;2.33;1.75;;;;;;;;;;2106224;28;20489;-46
2022/06/05 01:53:41;;;;;;;3.20;1.75;;;;;;;;;;2106979;28;20105;-43
2022/06/05 01:54:46;;;;;;;2.13;1.80;;;;;;;;;;2106488;28;20044;-44
2022/06/05 01:55:50;;;;;;;2.40;1.60;;;;;;;;;;2106118;28;20097;-43
2022/06/05 01:56:52;;;;;;;3.15;1.95;;;;;;;;;;2106088;28;20485;-45
2022/06/05 01:57:56;;;;;;;3.33;2.05;;;;;;;;;;2106244;28;20062;-47
2022/06/05 01:59:00;;;;;;;3.13;1.80;;;;;;;;;;2106178;28;20083;-45
2022/06/05 02:00:05;;;;;;;3.78;1.95;;;;;;;;;;2106127;28;20143;-46
2022/06/05 02:01:08;;;;;;;2.58;1.90;;;;;;;;;;2106167;28;20189;-46
2022/06/05 02:02:12;;;;;;;3.33;1.70;;;;;;;;;;2106150;28;20079;-46
2022/06/05 02:03:17;;;;;;;2.97;1.80;;;;;;;;;;2106691;28;20611;-43
2022/06/05 02:04:20;;;;;;;2.53;1.55;;;;;;;;;;2106163;28;20044;-43
2022/06/05 02:05:23;;;;;;;2.00;1.50;;;;;;;;;;2106255;28;20051;-43
2022/06/05 02:06:29;;;;;;;3.67;1.90;;;;;;;;;;2106048;28;20132;-43
2022/06/05 02:07:34;;;;;;;2.15;1.48;;;;;;;;;;2106335;28;20067;-43
2022/06/05 02:08:36;;;;;;;2.45;1.98;;;;;;;;;;2106146;28;20078;-44
2022/06/05 02:09:39;;;;;;;2.85;1.70;;;;;;;;;;2106252;28;20249;-43
2022/06/05 02:10:45;;;;;;;2.95;1.80;;;;;;;;;;2106227;28;20048;-43
2022/06/05 02:11:46;;;;;;;3.92;2.05;;;;;;;;;;2098407;28;20387;-45
2022/06/05 02:12:47;;;;;;;2.67;1.65;;;;;;;;;;2097769;28;20127;-43
2022/06/05 02:13:50;;;;;;;4.78;1.77;;;;;;;;;;2097727;28;20383;-44
2022/06/05 02:14:51;;;;;;;3.38;2.20;;;;;;;;;;2097745;28;20553;-43
2022/06/05 02:15:53;;;;;;;2.88;1.88;;;;;;;;;;2097763;28;20128;-44
2022/06/05 02:16:54;;;;;;;2.67;1.73;;;;;;;;;;2097786;28;20060;-43
2022/06/05 02:17:55;;;;;;;1.70;1.43;;;;;;;;;;2097751;28;20048;-43
2022/06/05 02:18:57;;;;;;;2.53;1.30;;;;;;;;;;2097782;28;20048;-43
2022/06/05 02:19:58;;;;;;;;;;;;;;;;;;2098580;28;20060;-46
2022/06/05 02:21:00;;;;;;;2.58;1.88;;;;;;;;;;2097598;28;20328;-46
2022/06/05 02:22:03;;;;;;;3.00;2.10;;;;;;;;;;2097907;28;20044;-43
2022/06/05 02:23:05;;;;;;;4.65;1.60;;;;;;;;;;2105325;28;20134;-44
2022/06/05 02:24:07;;;;;;;2.90;1.85;;;;;;;;;;2106162;28;20163;-43
2022/06/05 02:25:08;;;;;;;3.13;1.60;;;;;;;;;;2106030;28;20047;-43
2022/06/05 02:26:09;;;;;;;3.00;1.90;;;;;;;;;;2106059;28;20048;-43
2022/06/05 02:27:11;;;;;;;2.73;1.97;;;;;;;;;;2105979;28;20101;-43
2022/06/05 02:28:12;;;;;;;2.25;1.65;;;;;;;;;;2106523;28;20127;-46
2022/06/05 02:29:15;;;;;;;2.78;1.92;;;;;;;;;;2106196;28;20127;-46
2022/06/05 02:30:16;;;;;;;2.38;1.92;;;;;;;;;;2106245;28;20055;-45
2022/06/05 02:31:22;;;;;;;2.67;1.90;;;;;;;;;;2106274;28;20050;-43
2022/06/05 02:32:30;;;;;;;2.50;1.70;;;;;;;;;;2106234;28;20493;-43
2022/06/05 02:33:36;;;;;;;1.58;1.20;;;;;;;;;;2106032;28;20519;-43
2022/06/05 02:34:40;;;;;;;3.00;1.80;;;;;;;;;;2106362;28;20094;-46
2022/06/05 02:35:47;;;;;;;2.30;1.70;;;;;;;;;;2105989;28;20524;-45
2022/06/05 02:36:51;;;;;;;2.20;1.80;;;;;;;;;;2105787;28;20044;-46
2022/06/05 02:38:00;;;;;;;5.07;2.05;;;;;;;;;;2105938;28;20076;-46
2022/06/05 02:39:05;;;;;;;2.47;1.80;;;;;;;;;;2105934;28;20580;-45
2022/06/05 02:40:10;;;;;;;2.42;1.73;;;;;;;;;;2106101;28;20070;-43
2022/06/05 02:41:16;;;;;;;2.42;1.80;;;;;;;;;;2105964;28;20075;-43
2022/06/05 02:42:23;;;;;;;1.77;1.33;;;;;;;;;;2105960;28;20127;-43
2022/06/05 02:43:28;;;;;;;1.63;1.10;;;;;;;;;;2106116;28;20407;-43
2022/06/05 02:44:35;;;;;;;1.95;1.40;;;;;;;;;;2106118;28;20048;-42
2022/06/05 02:45:40;;;;;;;2.13;1.58;;;;;;;;;;2106016;28;20195;-42
2022/06/05 02:46:45;;;;;;;2.15;1.38;;;;;;;;;;2105850;28;20135;-43
2022/06/05 02:47:49;;;;;;;2.75;1.50;;;;;;;;;;2106037;28;20036;-43
2022/06/05 02:48:53;;;;;;;3.58;1.60;;;;;;;;;;2106077;28;20123;-45
2022/06/05 02:50:00;;;;;;;1.90;1.38;;;;;;;;;;2106096;28;20485;-43
2022/06/05 02:51:06;;;;;;;2.17;1.30;;;;;;;;;;2105799;28;20148;-43
2022/06/05 02:52:08;;;;;;;2.15;1.60;;;;;;;;;;2106141;28;20082;-42
2022/06/05 02:53:09;;;;;;;2.42;1.40;;;;;;;;;;2105934;28;20140;-43
2022/06/05 02:54:18;;;;;;;1.92;1.33;;;;;;;;;;2105806;28;20442;-43
2022/06/05 02:55:21;;;;;;;1.50;1.20;;;;;;;;;;2105921;28;20051;-42
2022/06/05 02:56:23;;;;;;;3.00;1.30;;;;;;;;;;2105712;28;20123;-43
2022/06/05 02:57:24;;;;;;;1.95;1.48;;;;;;;;;;2105849;28;20044;-42
2022/06/05 02:58:26;;;;;;;1.48;1.20;;;;;;;;;;2105752;28;20041;-45
2022/06/05 02:59:27;;;;;;;1.47;1.27;;;;;;;;;;2106047;28;20052;-46
2022/06/05 03:00:31;;;;;;;2.30;1.42;;;;;;;;;;2106158;28;20139;-43
2022/06/05 03:04:12;;;;;;;2.42;1.63;;;;;;;;;;2106069;28;20626;-44
2022/06/05 03:05:12;;;;;;;2.17;1.60;;;;;;;;;;2105752;28;20742;-43
2022/06/05 03:06:14;;;;;;;3.03;1.60;;;;;;;;;;2105792;28;20055;-42
2022/06/05 03:07:15;;;;;;;2.20;1.73;;;;;;;;;;2105764;28;20101;-42
2022/06/05 03:08:17;;;;;;;3.50;1.42;;;;;;;;;;2105723;28;20047;-42
2022/06/05 03:09:18;;;;;;;2.70;1.92;;;;;;;;;;2105453;28;20131;-42
2022/06/05 03:10:20;;;;;;;4.20;1.73;;;;;;;;;;2105615;28;20054;-42
2022/06/05 03:11:21;;;;;;;4.28;1.60;;;;;;;;;;2105522;28;20123;-42
2022/06/05 03:12:22;;;;;;;3.87;1.73;;;;;;;;;;2105724;28;20105;-43
2022/06/05 03:13:23;;;;;;;2.58;1.58;;;;;;;;;;2105849;28;20369;-42
2022/06/05 03:14:24;;;;;;;1.55;1.20;;;;;;;;;;2105714;28;20131;-41
2022/06/05 03:15:25;;;;;;;2.92;1.50;;;;;;;;;;2105796;28;20079;-42
2022/06/05 03:16:28;;;;;;;1.98;1.48;;;;;;;;;;2105551;28;20044;-43
2022/06/05 03:17:29;;;;;;;2.25;1.73;;;;;;;;;;2105783;28;20040;-43
2022/06/05 03:18:30;;;;;;;2.97;1.65;;;;;;;;;;2105484;28;20066;-43
2022/06/05 03:19:31;;;;;;;4.35;1.65;;;;;;;;;;2105676;28;20560;-43
2022/06/05 03:20:33;;;;;;;2.10;1.50;;;;;;;;;;2106150;28;20447;-47
2022/06/05 03:21:35;;;;;;;2.63;1.60;;;;;;;;;;2105739;28;20047;-47
2022/06/05 03:22:37;;;;;;;2.28;1.50;;;;;;;;;;2105782;28;20451;-43
2022/06/05 03:23:38;;;;;;;2.38;1.50;;;;;;;;;;2105776;28;20046;-43
2022/06/05 03:24:39;;;;;;;3.45;1.60;;;;;;;;;;2106244;28;20047;-46
2022/06/05 03:25:42;;;;;;;1.87;1.43;;;;;;;;;;2105518;28;20036;-46
2022/06/05 03:26:43;;;;;;;1.90;1.48;;;;;;;;;;2105941;28;20047;-46
2022/06/05 03:27:44;;;;;;;2.17;1.60;;;;;;;;;;2105879;28;20082;-46
2022/06/05 03:28:45;;;;;;;2.55;1.50;;;;;;;;;;2105600;28;20512;-46
2022/06/05 03:29:46;;;;;;;2.30;1.50;;;;;;;;;;2105922;28;20051;-44
2022/06/05 03:30:47;;;;;;;2.13;1.60;;;;;;;;;;2105866;28;20068;-46
2022/06/05 03:31:49;;;;;;;2.78;1.80;;;;;;;;;;2105578;28;20044;-45
2022/06/05 03:32:50;;;;;;;2.75;1.58;;;;;;;;;;2105660;28;20128;-46
2022/06/05 03:33:52;;;;;;;2.95;1.55;;;;;;;;;;2105634;28;20540;-49
2022/06/05 03:34:53;;;;;;;1.98;1.40;;;;;;;;;;2105703;28;20122;-45
2022/06/05 03:35:54;;;;;;;3.42;1.58;;;;;;;;;;2105956;28;20134;-43
2022/06/05 03:36:55;;;;;;;2.83;1.40;;;;;;;;;;2105604;28;20047;-43
2022/06/05 03:37:56;;;;;;;2.45;1.63;;;;;;;;;;2105809;28;20115;-43
2022/06/05 03:38:57;;;;;;;3.37;1.53;;;;;;;;;;2105589;28;20051;-43
2022/06/05 03:39:58;;;;;;;1.90;1.33;;;;;;;;;;2106132;28;20376;-45
2022/06/05 03:41:00;;;;;;;3.65;1.67;;;;;;;;;;2105812;28;20119;-44
2022/06/05 03:42:01;;;;;;;2.83;1.52;;;;;;;;;;2105593;28;20055;-43
2022/06/05 03:43:02;;;;;;;3.40;1.40;;;;;;;;;;2105910;28;20048;-45
2022/06/05 03:44:03;;;;;;;2.40;1.50;;;;;;;;;;2105754;28;20048;-48
2022/06/05 03:45:05;;;;;;;1.90;1.38;;;;;;;;;;2105729;28;20056;-46
2022/06/05 03:46:06;;;;;;;;;;;;;;;;;;2105949;28;20510;-45
2022/06/05 03:47:08;;;;;;;2.80;1.60;;;;;;;;;;2105783;28;19920;-46
2022/06/05 03:48:10;;;;;;;2.67;1.17;;;;;;;;;;2105736;28;20048;-43
2022/06/05 03:49:11;;;;;;;4.13;1.50;;;;;;;;;;2105891;28;20127;-43
2022/06/05 03:50:14;;;;;;;2.25;1.30;;;;;;;;;;2105722;28;20404;-45
2022/06/05 03:51:17;;;;;;;2.17;1.40;;;;;;;;;;2105604;28;20130;-46
2022/06/05 03:52:18;;;;;;;2.20;1.50;;;;;;;;;;2105515;28;20050;-46
2022/06/05 03:53:19;;;;;;;3.43;1.73;;;;;;;;;;2105642;28;20079;-46
2022/06/05 03:54:20;;;;;;;4.30;1.70;;;;;;;;;;2105643;28;20130;-46
2022/06/05 03:55:22;;;;;;;2.45;1.38;;;;;;;;;;2105495;28;20044;-46
2022/06/05 03:56:24;;;;;;;2.55;1.35;;;;;;;;;;2105443;28;20138;-46
2022/06/05 03:57:25;;;;;;;;;;;;;;;;;;2105903;28;20159;-45
2022/06/05 03:58:26;;;;;;;2.25;1.50;;;;;;;;;;2105590;28;19920;-46
2022/06/05 03:59:27;;;;;;;4.07;2.00;;;;;;;;;;2105459;28;20518;-46
2022/06/05 04:00:28;;;;;;;2.90;1.80;;;;;;;;;;2105637;28;20508;-45
2022/06/05 04:01:30;;;;;;;2.33;1.30;;;;;;;;;;2105375;28;20048;-46
2022/06/05 04:02:31;;;;;;;2.08;1.23;;;;;;;;;;2105433;28;20823;-46
2022/06/05 04:03:33;;;;;;;2.63;1.40;;;;;;;;;;2105472;28;20075;-47
2022/06/05 04:04:34;;;;;;;2.75;1.90;;;;;;;;;;2105579;28;20062;-46
2022/06/05 04:05:35;;;;;;;3.58;1.50;;;;;;;;;;2105589;28;20570;-43
2022/06/05 04:06:36;;;;;;;2.38;1.42;;;;;;;;;;2105948;28;20131;-44
2022/06/05 04:07:39;;;;;;;2.13;1.57;;;;;;;;;;2105769;28;20412;-46
2022/06/05 04:08:40;;;;;;;2.67;1.63;;;;;;;;;;2105584;28;20143;-46
2022/06/05 04:09:41;;;;;;;5.03;1.73;;;;;;;;;;2105638;28;20173;-46
2022/06/05 04:10:43;;;;;;;2.88;1.60;;;;;;;;;;2105391;28;20135;-46
2022/06/05 04:11:44;;;;;;;2.42;1.70;;;;;;;;;;2097822;28;20139;-45
2022/06/05 04:12:46;;;;;;;3.13;1.40;;;;;;;;;;2097117;28;20516;-46
2022/06/05 04:13:47;;;;;;;1.90;1.40;;;;;;;;;;2097196;28;20428;-46
2022/06/05 04:14:48;;;;;;;2.30;1.60;;;;;;;;;;2098217;28;20396;-47
2022/06/05 04:15:50;;;;;;;3.90;1.73;;;;;;;;;;2105668;28;20044;-43
2022/06/05 04:16:51;;;;;;;2.33;1.52;;;;;;;;;;2105571;28;20281;-45
2022/06/05 04:17:53;;;;;;;2.30;1.60;;;;;;;;;;2105682;28;20120;-44
2022/06/05 04:18:53;;;;;;;;;;;;;;;;;;2105777;28;20427;-43
2022/06/05 04:19:55;;;;;;;3.17;1.60;;;;;;;;;;2105454;28;19920;-43
2022/06/05 04:20:55;;;;;;;2.40;1.45;;;;;;;;;;2105448;28;20119;-44
2022/06/05 04:21:57;;;;;;;2.03;1.40;;;;;;;;;;2106246;28;20048;-45
2022/06/05 04:22:58;;;;;;;3.72;1.77;;;;;;;;;;2106938;28;20287;-45
2022/06/05 04:24:00;;;;;;;1.77;1.48;;;;;;;;;;2106798;28;20052;-44
2022/06/05 04:25:02;;;;;;;1.60;1.27;;;;;;;;;;2106999;28;20488;-42
2022/06/05 04:26:06;;;;;;;2.25;1.33;;;;;;;;;;2106782;28;20523;-44
2022/06/05 04:27:07;;;;;;;4.05;1.35;;;;;;;;;;2107022;28;20079;-43
2022/06/05 04:28:08;;;;;;;1.63;1.27;;;;;;;;;;2107018;28;20067;-46
2022/06/05 04:29:09;;;;;;;1.90;1.30;;;;;;;;;;2107021;28;20581;-45
2022/06/05 04:30:10;;;;;;;5.07;1.20;;;;;;;;;;2107170;28;20628;-43
2022/06/05 04:31:16;;;;;;;2.35;1.30;;;;;;;;;;2107143;28;20511;-45
2022/06/05 04:32:17;;;;;;;2.75;1.52;;;;;;;;;;2106782;28;20055;-45
2022/06/05 04:33:19;;;;;;;3.83;1.90;;;;;;;;;;2106618;28;20131;-45
2022/06/05 04:34:22;;;;;;;3.30;1.40;;;;;;;;;;2106872;28;20127;-45
2022/06/05 04:35:23;;;;;;;2.25;1.45;;;;;;;;;;2106933;28;20127;-43
2022/06/05 04:36:25;;;;;;;2.17;1.20;;;;;;;;;;2106805;28;20127;-43
2022/06/05 04:37:26;;;;;;;3.42;1.45;;;;;;;;;;2106824;28;20123;-43
2022/06/05 04:38:27;;;;;;;2.53;1.60;;;;;;;;;;2107001;28;20512;-46
2022/06/05 04:39:28;;;;;;;2.97;1.50;;;;;;;;;;2106707;28;20404;-46
2022/06/05 04:40:29;;;;;;;4.47;1.30;;;;;;;;;;2107054;28;20133;-45
2022/06/05 04:41:31;;;;;;;2.13;1.25;;;;;;;;;;2106728;28;20113;-47
2022/06/05 04:42:32;;;;;;;2.15;1.30;;;;;;;;;;2106786;28;20123;-46
2022/06/05 04:43:33;;;;;;;3.10;1.30;;;;;;;;;;2106955;28;20039;-46
2022/06/05 04:44:34;;;;;;;1.58;1.10;;;;;;;;;;2106821;28;20357;-47
2022/06/05 04:45:35;;;;;;;3.73;1.50;;;;;;;;;;2106784;28;20481;-44
2022/06/05 04:46:37;;;;;;;3.35;1.60;;;;;;;;;;2106587;28;20334;-47
2022/06/05 04:47:40;;;;;;;2.50;1.20;;;;;;;;;;2106804;28;20068;-47
2022/06/05 04:48:42;;;;;;;2.20;1.42;;;;;;;;;;2106637;28;20043;-45
2022/06/05 04:49:43;;;;;;;;;;;;;;;;;;2107137;28;20052;-48
2022/06/05 04:50:44;;;;;;;2.63;1.42;;;;;;;;;;2106838;28;19926;-44
2022/06/05 04:51:45;;;;;;;2.10;1.20;;;;;;;;;;2106592;28;20078;-43
2022/06/05 04:52:46;;;;;;;4.03;1.60;;;;;;;;;;2106959;28;20044;-46
2022/06/05 04:53:48;;;;;;;2.05;1.58;;;;;;;;;;2106719;28;20040;-45
2022/06/05 04:54:49;;;;;;;;;;;;;;;;;;2107123;28;20094;-45
2022/06/05 04:55:50;;;;;;;2.75;1.60;;;;;;;;;;2106642;28;19920;-46
2022/06/05 04:56:51;;;;;;;3.00;1.48;;;;;;;;;;2106758;28;20044;-46
2022/06/05 04:57:52;;;;;;;2.08;1.40;;;;;;;;;;2106445;28;20060;-46
2022/06/05 04:58:54;;;;;;;1.97;1.50;;;;;;;;;;2106730;28;20075;-47
2022/06/05 04:59:55;;;;;;;4.70;1.60;;;;;;;;;;2106551;28;20520;-45
2022/06/05 05:00:56;;;;;;;3.90;2.13;;;;;;;;;;2106597;28;20047;-45
2022/06/05 05:01:57;;;;;;;2.88;1.95;;;;;;;;;;2106901;28;20367;-43
2022/06/05 05:02:59;;;;;;;3.30;1.95;;;;;;;;;;2106820;28;20121;-43
2022/06/05 05:04:02;;;;;;;3.53;1.85;;;;;;;;;;2106545;28;20189;-43
2022/06/05 05:05:04;;;;;;;3.72;1.85;;;;;;;;;;2106779;28;20059;-45
2022/06/05 05:06:05;;;;;;;3.50;1.50;;;;;;;;;;2106961;28;20052;-43
2022/06/05 05:07:06;;;;;;;3.08;1.75;;;;;;;;;;2106645;28;20390;-43
2022/06/05 05:08:07;;;;;;;3.08;1.90;;;;;;;;;;2106750;28;20050;-45
2022/06/05 05:09:09;;;;;;;3.67;1.90;;;;;;;;;;2106670;28;20181;-43
2022/06/05 05:10:10;;;;;;;3.72;1.90;;;;;;;;;;2106863;28;20056;-45
2022/06/05 05:11:12;;;;;;;3.70;1.90;;;;;;;;;;2105972;28;20087;-45
2022/06/05 05:12:13;;;;;;;3.47;2.20;;;;;;;;;;2106469;28;20138;-46
2022/06/05 05:13:14;;;;;;;2.55;2.10;;;;;;;;;;2106697;28;20047;-45
2022/06/05 05:14:15;;;;;;;3.08;1.92;;;;;;;;;;2106521;28;20140;-45
2022/06/05 05:15:16;;;;;;;2.70;1.65;;;;;;;;;;2106529;28;20048;-45
2022/06/05 05:16:17;;;;;;;4.13;1.90;;;;;;;;;;2106501;28;20123;-46
2022/06/05 05:17:18;;;;;;;3.50;2.00;;;;;;;;;;2106846;28;20052;-43
2022/06/05 05:18:20;;;;;;;4.35;2.05;;;;;;;;;;2106427;28;20378;-43
2022/06/05 05:19:22;;;;;;;3.30;2.38;;;;;;;;;;2106710;28;20483;-44
2022/06/05 05:20:23;;;;;;;3.67;2.10;;;;;;;;;;2106599;28;20048;-44
2022/06/05 05:21:25;;;;;;;3.35;2.15;;;;;;;;;;2106513;28;20052;-44
2022/06/05 05:22:26;;;;;;;3.10;1.77;;;;;;;;;;2106350;28;20136;-44
2022/06/05 05:23:27;;;;;;;3.75;2.40;;;;;;;;;;2106759;28;20131;-43
2022/06/05 05:24:28;;;;;;;3.83;2.50;;;;;;;;;;2106804;28;20052;-43
2022/06/05 05:25:29;;;;;;;5.82;2.83;;;;;;;;;;2106535;28;20289;-42
2022/06/05 05:26:31;;;;;;;2.47;1.60;;;;;;;;;;2106375;28;20051;-43
2022/06/05 05:27:32;;;;;;;4.65;2.50;;;;;;;;;;2106441;28;20310;-42
2022/06/05 05:28:34;;;;;;;3.47;2.47;;;;;;;;;;2106583;28;20127;-43
2022/06/05 05:29:35;;;;;;;4.10;2.50;;;;;;;;;;2106506;28;20123;-43
2022/06/05 05:30:37;;;;;;;4.47;2.53;;;;;;;;;;2106427;28;20146;-43
2022/06/05 05:31:41;;;;;;;4.32;2.58;;;;;;;;;;2106321;28;20075;-43
2022/06/05 05:32:42;;;;;;;5.00;2.72;;;;;;;;;;2106008;28;20135;-43
2022/06/05 05:33:43;;;;;;;4.77;2.43;;;;;;;;;;2106449;28;20051;-45
2022/06/05 05:34:45;;;;;;;4.07;2.00;;;;;;;;;;2106582;28;20368;-43
2022/06/05 05:35:47;;;;;;;4.68;2.63;;;;;;;;;;2106395;28;20136;-45
2022/06/05 05:36:48;;;;;;;3.25;2.50;;;;;;;;;;2106482;28;20048;-45
2022/06/05 05:37:49;;;;;;;3.95;2.45;;;;;;;;;;2106194;28;20135;-45
2022/06/05 05:42:50;;;;;;;3.22;2.28;;;;;;;;;;2106237;28;20040;-45
2022/06/05 05:43:51;;;;;;;3.40;2.10;;;;;;;;;;2106659;28;20127;-45
2022/06/05 05:44:52;;;;;;;3.20;2.20;;;;;;;;;;2106404;28;20511;-45
2022/06/05 05:45:53;;;;;;;3.30;2.10;;;;;;;;;;2106233;28;20552;-45
2022/06/05 05:46:55;;;;;;;3.30;1.95;;;;;;;;;;2106369;28;20055;-45
2022/06/05 05:47:56;;;;;;;4.20;2.28;;;;;;;;;;2106428;28;20040;-45
2022/06/05 05:48:57;;;;;;;5.15;2.75;;;;;;;;;;2106318;28;20126;-47
2022/06/05 05:50:01;;;;;;;5.47;3.00;;;;;;;;;;2106352;28;20044;-45
2022/06/05 05:51:02;;;;;;;6.70;2.92;;;;;;;;;;2106432;28;20136;-46
2022/06/05 05:52:04;;;;;;;4.85;3.03;;;;;;;;;;2106441;28;20160;-44
2022/06/05 05:53:05;;;;;;;6.25;3.22;;;;;;;;;;2106298;28;20404;-43
2022/06/05 05:54:07;;;;;;;4.93;3.25;;;;;;;;;;2106263;28;20036;-43
2022/06/05 05:55:10;;;;;;;4.32;3.03;;;;;;;;;;2106217;28;20050;-43
2022/06/05 05:56:12;;;;;;;4.50;3.00;;;;;;;;;;2106389;28;20044;-46
2022/06/05 05:57:13;;;;;;;7.43;3.47;;;;;;;;;;2106362;28;20135;-46
2022/06/05 05:58:15;;;;;;;4.57;3.28;;;;;;;;;;2106072;28;20104;-47
2022/06/05 05:59:16;;;;;;;5.13;3.13;;;;;;;;;;2106248;28;20138;-46
2022/06/05 06:00:18;;;;;;;5.68;3.55;;;;;;;;;;2106237;28;20047;-47
2022/06/05 06:01:19;;;;;;;5.90;3.08;;;;;;;;;;2106087;28;20127;-47
2022/06/05 06:02:21;;;;;;;4.57;2.88;;;;;;;;;;2106292;28;20059;-44
2022/06/05 06:03:23;;;;;;;6.05;3.00;;;;;;;;;;2106607;28;20079;-44
2022/06/05 06:04:24;;;;;;;4.47;2.92;;;;;;;;;;2106068;28;20518;-43
2022/06/05 06:05:26;;;;;;;4.53;3.17;;;;;;;;;;2106151;28;20048;-44
2022/06/05 06:06:28;;;;;;;5.22;2.90;;;;;;;;;;2106373;28;20135;-43
2022/06/05 06:07:29;;;;;;;7.43;3.30;;;;;;;;;;2105749;28;20092;-43
2022/06/05 06:08:30;;;;;;;7.30;3.28;;;;;;;;;;2106177;28;20621;-43
2022/06/05 06:09:33;;;;;;;6.43;3.13;;;;;;;;;;2106158;28;20060;-44
2022/06/05 06:10:34;;;;;;;5.55;2.80;;;;;;;;;;2106127;28;20285;-46
2022/06/05 06:11:35;;;;;;;6.57;3.15;;;;;;;;;;2099840;28;20136;-46
2022/06/05 06:12:36;;;;;;;6.75;2.60;;;;;;;;;;2097755;28;20052;-45
2022/06/05 06:13:38;;;;;;;3.33;2.60;;;;;;;;;;2097695;28;20052;-42
2022/06/05 06:14:40;;;;;;;4.95;2.63;;;;;;;;;;2098178;28;20408;-45
2022/06/05 06:15:41;;;;;;;5.15;3.08;;;;;;;;;;2098112;28;20045;-44
2022/06/05 06:16:42;;;;;;;4.67;2.70;;;;;;;;;;2097645;28;20093;-44
2022/06/05 06:17:43;;;;;;;3.33;2.65;;;;;;;;;;2097808;28;20048;-44
2022/06/05 06:18:45;;;;;;;4.13;2.65;;;;;;;;;;2097891;28;20536;-44
2022/06/05 06:19:46;;;;;;;4.20;3.08;;;;;;;;;;2097816;28;20124;-44
2022/06/05 06:20:48;;;;;;;5.38;3.60;;;;;;;;;;2097620;28;20056;-44
2022/06/05 06:21:49;;;;;;;4.75;3.55;;;;;;;;;;2097807;28;20135;-45
2022/06/05 06:22:50;;;;;;;5.32;3.58;;;;;;;;;;2097955;28;20062;-45